Time;durP1;ratioP1;P1;durP2;ratioP2;P2;SDS_P1;SDS_P2;PMS_P1;PMS_P2;Temp;Humidity;BMP_temperature;BMP_pressure;BME280_temperature;BME280_humidity;BME280_pressure;Samples;Min_cycle;Max_cycle;Signal;HPM_P1;HPM_P2
2022/03/12 00:01:26;;;;;;;27.15;11.38;;;6.40;99.90;;;;;;4920346;29;20426;-79
2022/03/12 00:03:54;;;;;;;22.33;10.07;;;6.40;99.90;;;;;;4918761;29;20107;-80
2022/03/12 00:06:21;;;;;;;26.38;11.00;;;6.40;99.90;;;;;;4937641;29;20027;-81
2022/03/12 00:08:51;;;;;;;24.30;9.75;;;6.40;99.90;;;;;;4939229;29;20028;-80
2022/03/12 00:11:20;;;;;;;;;;;6.50;99.90;;;;;;4913006;29;20032;-80
2022/03/12 00:13:48;;;;;;;21.63;9.30;;;6.50;99.90;;;;;;4919421;29;20002;-80
2022/03/12 00:16:22;;;;;;;24.60;9.20;;;6.50;99.90;;;;;;4932150;28;20048;-80
2022/03/12 00:18:55;;;;;;;22.23;8.70;;;6.40;99.90;;;;;;4915193;29;20043;-79
2022/03/12 00:21:23;;;;;;;23.17;9.82;;;6.40;99.90;;;;;;4916650;29;20024;-80
2022/03/12 00:23:50;;;;;;;20.88;9.95;;;6.40;99.90;;;;;;4917854;29;20119;-79
2022/03/12 00:26:17;;;;;;;20.15;9.10;;;6.30;99.90;;;;;;4915873;29;20028;-80
2022/03/12 00:28:44;;;;;;;20.70;10.32;;;6.20;99.90;;;;;;4916860;29;20195;-79
2022/03/12 00:31:11;;;;;;;23.48;9.55;;;6.20;99.90;;;;;;4932340;28;20039;-80
2022/03/12 00:33:37;;;;;;;28.35;10.60;;;6.10;99.90;;;;;;4920880;29;20027;-80
2022/03/12 00:36:04;;;;;;;23.88;10.13;;;6.10;99.90;;;;;;4917679;29;20167;-80
2022/03/12 00:38:30;;;;;;;22.95;9.70;;;6.00;99.90;;;;;;4928028;29;20039;-80
2022/03/12 00:40:55;;;;;;;25.65;10.95;;;6.00;99.90;;;;;;4912909;29;20036;-80
2022/03/12 00:43:22;;;;;;;25.67;11.00;;;6.00;99.90;;;;;;4926293;29;20260;-79
2022/03/12 00:45:48;;;;;;;26.52;10.95;;;6.00;99.90;;;;;;4926562;29;20024;-80
2022/03/12 00:48:16;;;;;;;24.02;10.70;;;6.00;99.90;;;;;;4925865;29;20186;-79
2022/03/12 00:50:42;;;;;;;44.70;12.27;;;6.00;99.90;;;;;;4925976;29;20525;-79
2022/03/12 00:53:08;;;;;;;29.55;11.93;;;6.00;99.90;;;;;;4912390;29;20515;-79
2022/03/12 00:55:34;;;;;;;27.98;10.80;;;6.00;99.90;;;;;;4911441;29;20032;-79
2022/03/12 00:58:00;;;;;;;21.20;9.30;;;6.10;99.90;;;;;;4925762;29;20047;-80
2022/03/12 01:00:26;;;;;;;21.92;9.82;;;6.10;99.90;;;;;;4911807;29;20079;-80
2022/03/12 01:02:53;;;;;;;24.38;10.32;;;6.00;99.90;;;;;;4910314;29;20437;-80
2022/03/12 01:05:23;;;;;;;21.90;9.77;;;5.90;99.90;;;;;;4925698;29;20481;-80
2022/03/12 01:07:50;;;;;;;27.13;10.57;;;5.70;99.90;;;;;;4915786;29;20432;-80
2022/03/12 01:10:16;;;;;;;23.58;10.40;;;5.70;99.90;;;;;;4930394;29;20086;-80
2022/03/12 01:12:43;;;;;;;25.17;10.52;;;3.70;99.90;;;;;;4930663;29;20496;-80
2022/03/12 01:15:10;;;;;;;29.25;10.45;;;5.60;99.90;;;;;;4945057;29;20038;-80
2022/03/12 01:17:36;;;;;;;22.90;10.25;;;5.60;99.90;;;;;;4945005;29;20035;-80
2022/03/12 01:20:06;;;;;;;23.52;9.93;;;5.50;99.90;;;;;;4945195;29;20032;-80
2022/03/12 01:22:38;;;;;;;22.17;9.65;;;5.50;99.90;;;;;;4944945;29;20430;-79
2022/03/12 01:25:05;;;;;;;24.33;9.63;;;5.60;99.90;;;;;;4944636;29;20054;-80
2022/03/12 01:27:32;;;;;;;20.33;9.15;;;5.60;99.90;;;;;;4929743;29;20027;-80
2022/03/12 01:29:58;;;;;;;26.67;10.68;;;5.60;99.90;;;;;;4945366;29;20147;-80
2022/03/12 01:32:23;;;;;;;24.15;9.68;;;5.50;99.90;;;;;;4945353;29;20051;-79
2022/03/12 01:34:49;;;;;;;22.60;9.65;;;5.40;99.90;;;;;;4944574;29;20031;-80
2022/03/12 01:37:19;;;;;;;24.73;11.05;;;5.40;99.90;;;;;;4944111;29;20066;-80
2022/03/12 01:39:49;;;;;;;23.58;9.52;;;5.40;99.90;;;;;;4929690;29;20378;-79
2022/03/12 01:42:16;;;;;;;23.88;9.88;;;5.40;99.90;;;;;;4944987;29;20548;-79
2022/03/12 01:44:43;;;;;;;27.90;10.52;;;5.40;99.90;;;;;;4928178;29;20032;-79
2022/03/12 01:47:10;;;;;;;29.02;9.80;;;5.40;99.90;;;;;;4944404;29;20067;-79
2022/03/12 01:49:36;;;;;;;22.13;10.15;;;6.80;99.90;;;;;;4928561;29;20032;-79
2022/03/12 01:52:02;;;;;;;22.08;9.95;;;5.70;99.90;;;;;;4943981;29;20055;-80
2022/03/12 01:54:29;;;;;;;24.35;9.52;;;5.60;99.90;;;;;;4944723;28;20086;-80
2022/03/12 01:56:58;;;;;;;21.90;9.18;;;5.50;99.90;;;;;;4929757;29;20094;-80
2022/03/12 01:59:24;;;;;;;21.23;9.07;;;5.50;99.90;;;;;;4928653;29;20266;-80
2022/03/12 02:01:53;;;;;;;24.00;10.07;;;5.30;99.90;;;;;;4929358;29;20091;-79
2022/03/12 02:04:20;;;;;;;19.63;9.25;;;5.30;99.90;;;;;;4929644;29;20024;-79
2022/03/12 02:06:46;;;;;;;23.75;10.60;;;5.30;99.90;;;;;;4944655;29;20032;-80
2022/03/12 02:09:15;;;;;;;26.58;10.50;;;5.30;99.90;;;;;;4927377;29;20035;-80
2022/03/12 02:11:43;;;;;;;20.70;9.80;;;5.30;99.90;;;;;;4924890;29;20103;-80
2022/03/12 02:14:12;;;;;;;24.25;10.60;;;5.30;99.90;;;;;;4924849;29;20405;-80
2022/03/12 02:16:45;;;;;;;28.90;10.80;;;5.30;99.90;;;;;;4924697;29;20637;-79
2022/03/12 02:19:11;;;;;;;27.48;11.15;;;5.20;99.90;;;;;;4910391;29;20088;-80
2022/03/12 02:21:43;;;;;;;25.42;10.48;;;5.30;99.90;;;;;;4910703;29;20028;-79
2022/03/12 02:24:11;;;;;;;23.50;9.43;;;5.20;99.90;;;;;;4910453;29;20037;-80
2022/03/12 02:26:41;;;;;;;21.45;9.57;;;5.20;99.90;;;;;;4924762;29;20147;-80
2022/03/12 02:29:09;;;;;;;22.05;9.65;;;5.10;99.90;;;;;;4910006;29;20029;-79
2022/03/12 02:31:36;;;;;;;21.10;9.38;;;5.20;99.90;;;;;;4924747;29;20538;-80
2022/03/12 02:34:06;;;;;;;21.08;9.25;;;5.10;99.90;;;;;;4910234;29;20056;-80
2022/03/12 02:36:32;;;;;;;20.50;9.60;;;5.10;99.90;;;;;;4909896;29;20075;-80
2022/03/12 02:39:04;;;;;;;19.27;8.65;;;5.00;99.90;;;;;;4910564;29;20123;-80
2022/03/12 02:41:31;;;;;;;31.90;10.93;;;5.10;99.90;;;;;;4910251;29;20024;-79
2022/03/12 02:43:57;;;;;;;23.15;8.95;;;5.10;99.90;;;;;;4909776;29;20131;-79
2022/03/12 02:46:29;;;;;;;23.48;9.50;;;5.10;99.90;;;;;;4910676;29;20434;-79
2022/03/12 02:48:55;;;;;;;26.15;10.75;;;5.10;99.90;;;;;;4910653;29;20028;-80
2022/03/12 02:51:22;;;;;;;18.10;9.43;;;5.10;99.90;;;;;;4910891;29;20028;-79
2022/03/12 02:53:51;;;;;;;22.25;9.35;;;5.20;99.90;;;;;;4910778;29;20031;-79
2022/03/12 02:56:18;;;;;;;18.33;8.07;;;5.10;99.90;;;;;;4925029;29;20036;-80
2022/03/12 02:58:44;;;;;;;23.65;8.90;;;5.00;99.90;;;;;;4909883;29;20033;-79
2022/03/12 03:01:14;;;;;;;27.40;9.38;;;5.00;99.90;;;;;;4910462;29;20054;-79
2022/03/12 03:03:44;;;;;;;21.85;8.40;;;5.10;99.90;;;;;;4924655;29;20032;-79
2022/03/12 03:06:13;;;;;;;23.63;10.10;;;5.10;99.90;;;;;;4924656;29;20511;-80
2022/03/12 03:08:39;;;;;;;24.27;10.85;;;5.00;99.90;;;;;;4922134;29;20050;-80
2022/03/12 03:11:14;;;;;;;21.05;9.60;;;5.00;99.90;;;;;;4929183;29;20028;-79
2022/03/12 03:13:42;;;;;;;23.58;10.23;;;5.00;99.90;;;;;;4943540;29;20151;-80
2022/03/12 03:16:21;;;;;;;27.30;11.88;;;5.00;99.90;;;;;;4944188;29;20048;-79
2022/03/12 03:18:53;;;;;;;22.95;10.25;;;5.10;99.90;;;;;;4929200;29;20042;-79
2022/03/12 03:21:21;;;;;;;26.95;10.88;;;5.10;99.90;;;;;;4929000;29;20031;-79
2022/03/12 03:23:47;;;;;;;25.70;9.17;;;5.10;99.90;;;;;;4929565;29;20019;-79
2022/03/12 03:26:18;;;;;;;25.77;11.88;;;5.10;99.90;;;;;;4928396;29;20278;-80
2022/03/12 03:28:44;;;;;;;22.73;9.00;;;5.10;99.90;;;;;;4928936;29;20076;-79
2022/03/12 03:31:10;;;;;;;26.80;9.63;;;5.00;99.90;;;;;;4929796;29;20359;-80
2022/03/12 03:33:36;;;;;;;22.73;9.55;;;5.00;99.90;;;;;;4945754;29;20159;-79
2022/03/12 03:36:03;;;;;;;22.30;9.18;;;5.00;99.90;;;;;;4946319;29;20166;-80
2022/03/12 03:38:29;;;;;;;21.77;10.40;;;5.00;99.90;;;;;;4931942;29;20623;-80
2022/03/12 03:40:54;;;;;;;25.75;11.00;;;5.00;99.90;;;;;;4931313;29;20107;-80
2022/03/12 03:43:22;;;;;;;28.25;10.57;;;5.00;99.90;;;;;;4930871;29;20055;-80
2022/03/12 03:45:51;;;;;;;27.40;10.48;;;5.10;99.90;;;;;;4947241;28;20036;-80
2022/03/12 03:48:19;;;;;;;19.98;9.35;;;5.20;99.90;;;;;;4930966;29;20454;-79
2022/03/12 03:50:46;;;;;;;26.15;11.02;;;5.20;99.90;;;;;;4947620;28;20445;-80
2022/03/12 03:53:13;;;;;;;22.15;9.80;;;5.10;99.90;;;;;;4946383;28;20480;-79
2022/03/12 03:55:40;;;;;;;23.30;9.48;;;5.20;99.90;;;;;;4946900;29;20054;-80
2022/03/12 03:58:06;;;;;;;23.45;9.20;;;5.10;99.90;;;;;;4946268;29;20032;-80
2022/03/12 04:00:32;;;;;;;25.92;10.55;;;5.10;99.90;;;;;;4946379;29;20042;-80
2022/03/12 04:03:04;;;;;;;20.33;9.48;;;5.00;99.90;;;;;;4932610;29;20094;-80
2022/03/12 04:05:36;;;;;;;19.08;8.23;;;5.00;99.90;;;;;;4947427;29;20488;-80
2022/03/12 04:08:04;;;;;;;21.42;9.20;;;4.90;99.90;;;;;;4931379;29;20028;-80
2022/03/12 04:10:30;;;;;;;23.35;9.65;;;5.00;99.90;;;;;;4930147;29;20075;-79
2022/03/12 04:12:57;;;;;;;25.17;10.32;;;5.00;99.90;;;;;;4946856;29;20027;-79
2022/03/12 04:15:23;;;;;;;25.13;9.82;;;5.00;99.90;;;;;;4947290;29;20432;-80
2022/03/12 04:17:53;;;;;;;20.83;9.38;;;4.70;99.90;;;;;;4930306;29;20048;-80
2022/03/12 04:20:21;;;;;;;25.63;9.55;;;5.00;99.90;;;;;;4946811;29;20052;-80
2022/03/12 04:22:48;;;;;;;22.38;8.77;;;5.00;99.90;;;;;;4946353;29;20417;-80
2022/03/12 04:25:15;;;;;;;22.40;8.00;;;4.90;99.90;;;;;;4946524;29;20027;-81
2022/03/12 04:27:44;;;;;;;20.50;8.68;;;4.90;99.90;;;;;;4945737;29;20026;-80
2022/03/12 04:30:12;;;;;;;26.30;9.90;;;4.90;99.90;;;;;;4931115;29;20028;-80
2022/03/12 04:32:39;;;;;;;21.63;9.48;;;4.80;99.90;;;;;;4945963;29;20417;-80
2022/03/12 04:35:05;;;;;;;18.75;8.73;;;4.90;99.90;;;;;;4945913;29;20051;-80
2022/03/12 04:37:33;;;;;;;27.08;9.43;;;4.90;99.90;;;;;;4945112;28;20066;-80
2022/03/12 04:39:58;;;;;;;21.02;9.60;;;4.80;99.90;;;;;;4930255;29;20028;-79
2022/03/12 04:42:24;;;;;;;22.25;9.52;;;4.80;99.90;;;;;;4929912;29;20366;-79
2022/03/12 04:44:50;;;;;;;22.38;9.40;;;4.70;99.90;;;;;;4931297;29;20028;-79
2022/03/12 04:47:19;;;;;;;23.08;8.52;;;4.80;99.90;;;;;;4945564;29;20038;-79
2022/03/12 04:49:46;;;;;;;27.30;9.18;;;4.70;99.90;;;;;;4945062;29;20559;-79
2022/03/12 04:52:12;;;;;;;21.90;9.00;;;4.60;99.90;;;;;;4944826;29;20122;-79
2022/03/12 04:54:39;;;;;;;19.70;9.77;;;4.60;99.90;;;;;;4930611;29;20020;-80
2022/03/12 04:57:05;;;;;;;19.42;8.65;;;4.60;99.90;;;;;;4930166;29;20035;-79
2022/03/12 04:59:31;;;;;;;18.63;7.85;;;4.70;99.90;;;;;;4945107;29;20032;-80
2022/03/12 05:01:59;;;;;;;23.35;9.20;;;4.90;99.90;;;;;;4945561;29;20039;-80
2022/03/12 05:04:25;;;;;;;21.30;8.98;;;4.90;99.90;;;;;;4944981;28;20028;-79
2022/03/12 05:06:51;;;;;;;22.77;9.65;;;4.90;99.90;;;;;;4930424;29;20385;-79
2022/03/12 05:09:19;;;;;;;23.35;9.82;;;4.90;99.90;;;;;;4913497;29;20024;-79
2022/03/12 05:11:45;;;;;;;22.08;9.48;;;4.90;99.90;;;;;;4911267;29;20039;-80
2022/03/12 05:14:12;;;;;;;20.73;9.32;;;4.80;99.90;;;;;;4925609;29;20032;-79
2022/03/12 05:16:38;;;;;;;19.70;8.88;;;4.80;99.90;;;;;;4925737;29;20543;-80
2022/03/12 05:19:05;;;;;;;22.55;9.63;;;4.80;99.90;;;;;;4925769;29;20107;-79
2022/03/12 05:21:31;;;;;;;16.85;8.02;;;4.70;99.90;;;;;;4911180;29;20047;-80
2022/03/12 05:23:56;;;;;;;22.73;9.48;;;4.70;99.90;;;;;;4911000;29;20485;-79
2022/03/12 05:26:23;;;;;;;20.63;8.25;;;4.60;99.90;;;;;;4925049;29;20039;-80
2022/03/12 05:28:49;;;;;;;21.40;9.10;;;4.70;99.90;;;;;;4910917;29;20031;-80
2022/03/12 05:31:16;;;;;;;19.45;7.90;;;4.70;99.90;;;;;;4926205;29;20032;-80
2022/03/12 05:33:43;;;;;;;19.05;9.48;;;4.60;99.90;;;;;;4911276;29;20521;-80
2022/03/12 05:36:09;;;;;;;20.75;9.18;;;4.60;99.90;;;;;;4925242;29;20396;-80
2022/03/12 05:38:36;;;;;;;20.88;8.65;;;4.70;99.90;;;;;;4925922;29;20058;-80
2022/03/12 05:41:10;;;;;;;18.52;9.15;;;4.80;99.90;;;;;;4926607;29;20040;-80
2022/03/12 05:43:42;;;;;;;19.83;9.45;;;4.80;99.90;;;;;;4911748;29;20499;-79
2022/03/12 05:46:08;;;;;;;21.00;9.07;;;4.70;99.90;;;;;;4911273;29;20058;-80
2022/03/12 05:48:34;;;;;;;19.80;9.18;;;4.60;99.90;;;;;;4925696;29;20396;-80
2022/03/12 05:51:00;;;;;;;23.02;9.00;;;4.50;99.90;;;;;;4926210;29;20046;-79
2022/03/12 05:53:27;;;;;;;22.58;10.50;;;4.40;99.90;;;;;;4925644;29;20469;-79
2022/03/12 05:55:53;;;;;;;25.92;9.43;;;4.40;99.90;;;;;;4910909;29;20039;-79
2022/03/12 05:58:19;;;;;;;21.13;9.70;;;4.30;99.90;;;;;;4911939;29;20028;-80
2022/03/12 06:00:47;;;;;;;22.17;8.68;;;4.20;99.90;;;;;;4926004;29;20145;-80
2022/03/12 06:03:13;;;;;;;19.98;9.35;;;4.20;99.90;;;;;;4911489;29;20054;-80
2022/03/12 06:05:41;;;;;;;23.02;11.35;;;4.10;99.90;;;;;;4926235;29;20044;-79
2022/03/12 06:08:08;;;;;;;21.60;9.43;;;3.90;99.90;;;;;;4925896;29;20390;-80
2022/03/12 06:10:37;;;;;;;17.55;8.52;;;3.90;99.90;;;;;;4910811;29;20489;-80
2022/03/12 06:13:06;;;;;;;19.83;9.02;;;3.90;99.90;;;;;;4910225;29;20039;-79
2022/03/12 06:15:35;;;;;;;25.03;9.83;;;3.40;99.90;;;;;;4924692;29;20028;-80
2022/03/12 06:18:01;;;;;;;;;;;4.10;99.90;;;;;;4925118;29;20040;-80
2022/03/12 06:20:27;;;;;;;24.60;10.35;;;4.00;99.90;;;;;;4910667;29;19911;-80
2022/03/12 06:22:53;;;;;;;22.60;9.45;;;4.20;99.90;;;;;;4910575;29;20025;-80
2022/03/12 06:25:23;;;;;;;27.00;10.85;;;4.30;99.90;;;;;;4911364;29;20107;-79
2022/03/12 06:27:55;;;;;;;21.52;9.43;;;4.10;99.90;;;;;;4924472;29;20417;-79
2022/03/12 06:30:24;;;;;;;20.23;9.70;;;4.10;99.90;;;;;;4924712;29;20475;-79
2022/03/12 06:32:51;;;;;;;22.25;8.95;;;4.10;99.90;;;;;;4925606;29;20546;-79
2022/03/12 06:35:18;;;;;;;21.70;10.98;;;4.10;99.90;;;;;;4914209;29;20128;-78
2022/03/12 06:37:45;;;;;;;24.60;8.50;;;4.10;99.90;;;;;;4910657;29;20393;-79
2022/03/12 06:40:14;;;;;;;25.23;10.50;;;3.90;99.90;;;;;;4910694;29;20510;-79
2022/03/12 06:42:41;;;;;;;22.52;10.82;;;4.00;99.90;;;;;;4911534;29;20346;-79
2022/03/12 06:45:08;;;;;;;35.90;12.48;;;4.00;99.90;;;;;;4926192;29;20039;-79
2022/03/12 06:47:38;;;;;;;50.65;13.82;;;4.10;99.90;;;;;;4910336;29;20028;-80
2022/03/12 06:50:08;;;;;;;41.28;13.27;;;4.20;99.90;;;;;;4925686;29;20047;-79
2022/03/12 06:52:34;;;;;;;74.20;19.40;;;4.30;99.90;;;;;;4926863;29;20056;-80
2022/03/12 06:55:00;;;;;;;61.45;17.85;;;4.50;99.90;;;;;;4923941;29;20481;-80
2022/03/12 06:57:26;;;;;;;61.53;16.95;;;4.60;99.90;;;;;;4922725;29;20467;-79
2022/03/12 06:59:52;;;;;;;41.63;13.38;;;4.80;99.90;;;;;;4908458;29;20056;-79
2022/03/12 07:02:18;;;;;;;32.80;12.27;;;5.00;99.90;;;;;;4923003;29;20214;-80
2022/03/12 07:04:44;;;;;;;32.47;10.85;;;5.20;99.90;;;;;;4908569;29;20030;-80
2022/03/12 07:07:10;;;;;;;26.23;10.00;;;5.30;99.90;;;;;;4926693;29;20036;-80
2022/03/12 07:09:37;;;;;;;24.20;9.80;;;5.60;99.90;;;;;;4946653;29;20118;-81
2022/03/12 07:12:03;;;;;;;23.45;9.52;;;5.60;99.90;;;;;;4930013;29;20032;-79
2022/03/12 07:14:31;;;;;;;23.33;8.57;;;5.90;99.90;;;;;;4945652;29;20473;-79
2022/03/12 07:16:56;;;;;;;23.65;11.45;;;6.20;99.90;;;;;;4948224;29;20054;-79
2022/03/12 07:19:23;;;;;;;25.15;11.52;;;6.40;99.90;;;;;;4930246;29;20028;-79
2022/03/12 07:21:49;;;;;;;22.55;10.60;;;6.60;99.90;;;;;;4919092;29;20036;-79
2022/03/12 07:24:15;;;;;;;23.85;9.50;;;6.80;99.90;;;;;;4926422;29;20502;-78
2022/03/12 07:26:41;;;;;;;20.55;8.30;;;7.00;99.90;;;;;;4912440;29;20047;-79
2022/03/12 07:29:07;;;;;;;21.95;9.07;;;7.10;99.90;;;;;;4913104;29;20028;-79
2022/03/12 07:31:36;;;;;;;17.90;8.60;;;7.20;99.90;;;;;;4912290;29;20028;-80
2022/03/12 07:34:07;;;;;;;19.63;9.05;;;7.40;99.90;;;;;;4913637;29;20027;-78
2022/03/12 07:36:34;;;;;;;20.60;9.68;;;7.50;99.90;;;;;;4914033;29;20549;-79
2022/03/12 07:39:03;;;;;;;22.63;10.20;;;7.60;99.90;;;;;;4916909;29;20107;-80
2022/03/12 07:41:29;;;;;;;28.83;12.25;;;7.40;99.90;;;;;;4930775;29;20031;-78
2022/03/12 07:43:55;;;;;;;23.13;9.63;;;7.50;99.90;;;;;;4930717;29;20029;-79
2022/03/12 07:46:21;;;;;;;20.00;9.75;;;7.70;99.90;;;;;;4917234;29;20039;-79
2022/03/12 07:48:48;;;;;;;20.17;9.60;;;7.90;99.90;;;;;;4935925;29;20598;-79
2022/03/12 07:51:13;;;;;;;24.10;11.05;;;8.00;99.90;;;;;;4920436;29;20040;-79
2022/03/12 07:53:39;;;;;;;27.25;11.45;;;8.00;99.90;;;;;;4927703;29;20016;-81
2022/03/12 07:56:07;;;;;;;23.67;11.10;;;8.00;99.90;;;;;;4937550;29;20044;-79
2022/03/12 07:58:33;;;;;;;23.05;10.07;;;8.30;99.90;;;;;;4920152;29;20346;-78
2022/03/12 08:01:00;;;;;;;26.00;10.95;;;8.60;99.90;;;;;;4914069;29;20617;-78
2022/03/12 08:03:26;;;;;;;21.92;10.77;;;8.80;99.90;;;;;;4913750;29;20051;-78
2022/03/12 08:05:56;;;;;;;23.20;11.20;;;8.80;99.90;;;;;;4913912;29;20086;-78
2022/03/12 08:08:22;;;;;;;24.20;10.80;;;9.20;99.90;;;;;;4914003;29;20020;-79
2022/03/12 08:13:32;;;;;;;21.48;10.90;;;9.40;99.90;;;;;;4913644;29;20034;-79
2022/03/12 08:15:59;;;;;;;24.67;11.88;;;9.40;99.90;;;;;;4914352;29;20107;-78
2022/03/12 08:18:24;;;;;;;31.25;13.43;;;9.30;98.00;;;;;;4915326;29;20394;-78
2022/03/12 08:20:50;;;;;;;26.48;11.15;;;9.00;99.40;;;;;;4916414;29;20079;-78
2022/03/12 08:23:17;;;;;;;23.33;10.80;;;8.70;99.90;;;;;;4914246;29;20579;-79
2022/03/12 08:25:42;;;;;;;25.17;10.60;;;8.90;99.90;;;;;;4914077;29;20020;-78
2022/03/12 08:28:09;;;;;;;22.42;11.38;;;9.00;99.90;;;;;;4928410;29;20036;-78
2022/03/12 08:30:36;;;;;;;27.10;11.75;;;9.10;99.90;;;;;;4929037;29;20394;-78
2022/03/12 08:33:02;;;;;;;27.30;11.05;;;9.50;99.90;;;;;;4915313;29;20056;-79
2022/03/12 08:35:29;;;;;;;25.38;10.52;;;9.70;99.90;;;;;;4915079;29;20032;-79
2022/03/12 08:37:55;;;;;;;23.70;9.38;;;10.10;99.00;;;;;;4914669;29;20528;-79
2022/03/12 08:40:23;;;;;;;22.75;10.18;;;10.30;95.00;;;;;;4914069;29;20063;-79
2022/03/12 08:42:49;;;;;;;23.25;10.40;;;10.60;93.10;;;;;;4914011;29;20553;-79
2022/03/12 08:45:15;;;;;;;22.08;10.55;;;10.30;92.70;;;;;;4927701;29;20020;-79
2022/03/12 08:47:41;;;;;;;18.73;8.57;;;10.50;92.70;;;;;;4913045;29;20031;-79
2022/03/12 08:50:08;;;;;;;21.00;10.30;;;10.70;90.20;;;;;;4913134;29;20036;-78
2022/03/12 08:52:35;;;;;;;22.90;10.40;;;10.70;83.50;;;;;;4927449;29;20032;-79
2022/03/12 08:55:01;;;;;;;20.80;9.85;;;10.50;82.50;;;;;;4912997;29;20024;-79
2022/03/12 08:57:27;;;;;;;26.75;10.38;;;10.70;81.40;;;;;;4913166;29;20083;-79
2022/03/12 08:59:52;;;;;;;20.35;8.93;;;10.50;79.70;;;;;;4928639;29;20032;-79
2022/03/12 09:02:19;;;;;;;21.70;10.50;;;10.50;76.20;;;;;;4914835;29;20028;-78
2022/03/12 09:04:47;;;;;;;21.63;9.77;;;10.50;76.40;;;;;;4914573;29;20035;-79
2022/03/12 09:07:13;;;;;;;21.98;9.77;;;10.50;73.50;;;;;;4914871;29;20028;-78
2022/03/12 09:09:39;;;;;;;26.63;10.32;;;10.50;74.50;;;;;;4914535;29;20141;-78
2022/03/12 09:12:05;;;;;;;21.35;9.63;;;10.30;74.40;;;;;;4914115;29;20481;-79
2022/03/12 09:14:34;;;;;;;19.50;9.25;;;10.30;76.00;;;;;;4914527;29;20024;-78
2022/03/12 09:17:02;;;;;;;20.17;8.10;;;10.40;76.40;;;;;;4913980;29;20315;-78
2022/03/12 09:19:28;;;;;;;22.63;9.55;;;10.60;71.10;;;;;;4914367;29;20031;-79
2022/03/12 09:21:56;;;;;;;21.63;9.85;;;10.70;69.40;;;;;;4914221;29;20032;-78
2022/03/12 09:24:22;;;;;;;22.05;10.40;;;10.70;68.30;;;;;;4914115;29;20025;-79
2022/03/12 09:26:48;;;;;;;21.23;8.95;;;10.80;68.10;;;;;;4914356;29;20035;-78
2022/03/12 09:29:14;;;;;;;17.58;9.95;;;10.70;66.60;;;;;;4913453;29;20032;-78
2022/03/12 09:31:40;;;;;;;21.90;10.00;;;10.60;67.10;;;;;;4914280;29;20028;-78
2022/03/12 09:34:06;;;;;;;21.92;10.25;;;10.70;66.10;;;;;;4913997;29;20544;-78
2022/03/12 09:36:32;;;;;;;17.60;8.70;;;10.70;67.60;;;;;;4913523;29;20160;-78
2022/03/12 09:38:57;;;;;;;30.08;9.77;;;10.80;65.10;;;;;;4913659;29;20060;-79
2022/03/12 09:41:23;;;;;;;19.38;9.68;;;10.90;65.60;;;;;;4914036;29;20095;-79
2022/03/12 09:43:49;;;;;;;25.27;10.52;;;10.80;64.70;;;;;;4913627;29;20063;-78
2022/03/12 09:46:15;;;;;;;24.73;11.30;;;10.70;65.60;;;;;;4928622;29;20519;-78
2022/03/12 09:48:40;;;;;;;23.98;9.98;;;10.70;64.70;;;;;;4928331;29;20032;-78
2022/03/12 09:51:06;;;;;;;27.20;11.77;;;10.80;65.10;;;;;;4928173;29;20032;-78
2022/03/12 09:53:34;;;;;;;24.85;11.25;;;11.00;65.20;;;;;;4913803;29;20477;-79
2022/03/12 09:56:00;;;;;;;25.75;10.85;;;11.30;64.00;;;;;;4928078;29;20507;-78
2022/03/12 09:58:25;;;;;;;23.83;10.88;;;11.10;63.10;;;;;;4913527;29;20107;-78
2022/03/12 10:00:51;;;;;;;21.10;10.50;;;10.90;63.20;;;;;;4928169;29;20028;-79
2022/03/12 10:03:17;;;;;;;21.80;10.63;;;10.80;63.80;;;;;;4913389;29;20028;-78
2022/03/12 10:05:43;;;;;;;19.38;10.68;;;10.80;63.70;;;;;;4913437;29;20032;-78
2022/03/12 10:08:08;;;;;;;26.15;11.70;;;11.00;64.00;;;;;;4928119;29;20060;-78
2022/03/12 10:10:35;;;;;;;23.65;10.55;;;11.10;62.60;;;;;;4913433;29;20103;-79
2022/03/12 10:13:03;;;;;;;21.67;9.52;;;11.10;62.30;;;;;;4913138;29;20030;-79
2022/03/12 10:15:29;;;;;;;25.10;10.95;;;11.30;62.70;;;;;;4927845;29;20067;-78
2022/03/12 10:17:56;;;;;;;23.20;11.23;;;11.30;61.80;;;;;;4913145;29;20082;-78
2022/03/12 10:20:22;;;;;;;25.83;10.73;;;11.30;62.30;;;;;;4913294;29;20053;-78
2022/03/12 10:22:48;;;;;;;18.30;8.98;;;11.60;62.00;;;;;;4913549;29;20052;-79
2022/03/12 10:25:15;;;;;;;22.73;9.27;;;11.60;61.50;;;;;;4913359;29;20496;-78
2022/03/12 10:27:41;;;;;;;20.27;9.23;;;11.70;61.70;;;;;;4913071;29;20565;-78
2022/03/12 10:30:08;;;;;;;25.67;10.55;;;11.70;61.80;;;;;;4913470;29;20063;-79
2022/03/12 10:32:44;;;;;;;24.17;10.63;;;12.10;61.50;;;;;;4913373;29;20028;-78
2022/03/12 10:35:12;;;;;;;22.02;10.63;;;12.20;62.70;;;;;;4927671;29;20272;-78
2022/03/12 10:37:38;;;;;;;21.00;9.93;;;12.40;60.80;;;;;;4912819;29;20056;-79
2022/03/12 10:40:10;;;;;;;19.92;9.93;;;12.30;60.80;;;;;;4914402;29;20457;-78
2022/03/12 10:42:46;;;;;;;23.67;10.32;;;12.30;63.00;;;;;;4916771;29;20064;-79
2022/03/12 10:45:17;;;;;;;20.45;9.48;;;12.60;60.90;;;;;;4917110;29;20127;-79
2022/03/12 10:47:47;;;;;;;21.33;10.63;;;12.50;60.80;;;;;;4916991;29;20072;-78
2022/03/12 10:50:39;;;;;;;21.67;10.30;;;12.50;61.70;;;;;;4916724;29;20367;-78
2022/03/12 10:53:06;;;;;;;22.75;9.90;;;12.70;60.20;;;;;;4916864;29;20036;-79
2022/03/12 10:55:40;;;;;;;23.70;10.60;;;12.70;61.00;;;;;;4916525;29;20508;-79
2022/03/12 10:58:08;;;;;;;24.02;9.82;;;13.10;60.70;;;;;;4931112;29;20047;-78
2022/03/12 11:00:40;;;;;;;22.45;9.60;;;13.40;60.50;;;;;;4916739;29;20474;-79
2022/03/12 11:03:12;;;;;;;20.50;9.07;;;13.50;60.40;;;;;;4916764;29;20031;-79
2022/03/12 11:05:38;;;;;;;23.88;10.07;;;13.60;60.00;;;;;;4916608;29;20115;-79
2022/03/12 11:08:22;;;;;;;21.85;10.60;;;13.50;59.70;;;;;;4930926;29;20283;-79
2022/03/12 11:10:52;;;;;;;24.92;10.82;;;13.40;60.00;;;;;;4916648;29;20119;-78
2022/03/12 11:14:05;;;;;;;19.02;9.25;;;13.60;60.80;;;;;;4916208;29;20080;-79
2022/03/12 11:16:32;;;;;;;19.60;8.80;;;13.70;57.70;;;;;;4915825;29;20099;-78
2022/03/12 11:19:07;;;;;;;22.30;9.30;;;13.40;58.90;;;;;;4916583;29;20063;-79
2022/03/12 11:21:37;;;;;;;21.98;10.57;;;13.30;59.20;;;;;;4916388;29;20024;-79
2022/03/12 11:24:22;;;;;;;20.00;8.77;;;13.00;58.70;;;;;;4915319;29;20359;-79
2022/03/12 11:26:58;;;;;;;21.83;9.55;;;12.70;59.90;;;;;;4916013;29;20031;-79
2022/03/12 11:29:26;;;;;;;23.33;11.68;;;12.80;59.20;;;;;;4930683;29;20032;-79
2022/03/12 11:32:04;;;;;;;21.27;8.80;;;12.50;58.80;;;;;;4916389;29;20020;-79
2022/03/12 11:34:48;;;;;;;23.02;9.02;;;12.70;59.10;;;;;;4916279;29;20083;-79
2022/03/12 11:37:17;;;;;;;20.00;9.68;;;13.00;58.30;;;;;;4915824;29;20306;-79
2022/03/12 11:39:52;;;;;;;23.25;10.38;;;12.90;57.40;;;;;;4916176;29;20172;-79
2022/03/12 11:42:26;;;;;;;20.95;10.75;;;12.80;57.80;;;;;;4915817;29;20513;-79
2022/03/12 11:44:52;;;;;;;24.63;10.88;;;12.90;58.50;;;;;;4930501;29;20056;-79
2022/03/12 11:47:23;;;;;;;25.35;10.63;;;13.00;57.50;;;;;;4915689;29;20039;-78
2022/03/12 11:49:51;;;;;;;21.10;10.18;;;13.20;56.70;;;;;;4930521;29;20024;-79
2022/03/12 11:52:19;;;;;;;21.00;11.32;;;13.20;55.40;;;;;;4915403;29;20490;-79
2022/03/12 11:54:45;;;;;;;17.10;8.52;;;13.00;56.10;;;;;;4916004;29;20156;-79
2022/03/12 11:57:20;;;;;;;18.58;9.65;;;13.10;57.00;;;;;;4930022;29;20032;-78
2022/03/12 11:59:46;;;;;;;22.38;10.48;;;13.10;56.70;;;;;;4915553;29;20163;-79
2022/03/12 12:02:23;;;;;;;25.38;12.20;;;13.20;56.90;;;;;;4915867;29;20103;-78
2022/03/12 12:04:52;;;;;;;25.08;9.18;;;13.40;57.90;;;;;;4914240;29;20512;-79
2022/03/12 12:07:25;;;;;;;23.67;10.03;;;13.40;57.20;;;;;;4915492;29;20152;-79
2022/03/12 12:09:51;;;;;;;17.80;9.05;;;13.60;57.80;;;;;;4914310;29;20032;-78
2022/03/12 12:12:20;;;;;;;19.88;9.02;;;13.90;56.30;;;;;;4915184;29;20020;-79
2022/03/12 12:14:49;;;;;;;19.08;8.95;;;13.90;56.80;;;;;;4915656;29;20401;-79
2022/03/12 12:17:15;;;;;;;17.05;8.18;;;14.00;57.10;;;;;;4915613;29;20548;-79
2022/03/12 12:19:40;;;;;;;17.95;8.77;;;14.10;56.90;;;;;;4930083;29;20167;-79
2022/03/12 12:22:10;;;;;;;21.92;10.10;;;13.90;55.70;;;;;;4930113;29;20028;-79
2022/03/12 12:24:44;;;;;;;22.77;8.98;;;14.10;56.00;;;;;;4929772;29;20032;-79
2022/03/12 12:27:12;;;;;;;15.85;8.40;;;14.20;54.50;;;;;;4929595;29;20498;-78
2022/03/12 12:29:41;;;;;;;18.88;8.43;;;14.80;55.40;;;;;;4915005;29;20042;-79
2022/03/12 12:32:12;;;;;;;20.83;8.93;;;15.10;55.10;;;;;;4913871;29;20060;-79
2022/03/12 12:35:04;;;;;;;15.80;8.00;;;15.10;54.10;;;;;;4915167;29;20024;-78
2022/03/12 12:37:49;;;;;;;22.48;8.30;;;15.00;54.70;;;;;;4913421;29;20048;-79
2022/03/12 12:40:31;;;;;;;14.43;8.40;;;15.20;54.20;;;;;;4914944;29;20088;-78
2022/03/12 12:43:09;;;;;;;17.17;7.85;;;15.20;55.00;;;;;;4929232;29;20036;-79
2022/03/12 12:45:56;;;;;;;19.65;9.23;;;15.40;54.60;;;;;;4913389;29;20505;-79
2022/03/12 12:48:33;;;;;;;17.25;8.45;;;15.40;54.40;;;;;;4929182;29;20152;-79